Cape Flattery, Washington
Current Conditions -  °F | °C
As of 8:12 AM on Monday 24 Nov 2014 (Local Time) from KUIL Reporting Station
Overcast Overcast  
Wind Chill: 45°   Ceiling: 2200
Heat Index: 45°   Visibility: 7mi
Dew Point: 41°   Wind: 3mph
Humidity: 86%   Direction: 140°SE
Pressure: 30.25"   Gusts: NA
Location:  48.3685°N, 124.623°W
Report Text: KUIL 241612Z AUTO 14003KT 7SM BKN022 BKN029 OVC055 07/05 A3025 RMK AO2 T00720050
Loading
Personal Weather Stations






























Interactive Weather Map New forecast layout! Learn more

10-Day Weather Forecast

Advertisements
Track Severe Weather on mobile